Terminal Aerodrome Forecast
Issued by NWS Northern Indiana

Home | Current Version | Previous Version | Text Only | Print | Product List | Glossary On
Versions: 1 2 3 4 5 6 7 8 9 10 11 12 13
000
FTUS43 KIWX 240500
TAFFWA
TAF
KFWA 240535Z 2406/2506 35005KT 3SM -RA BR OVC015
      TEMPO 2407/2410 2SM -RA BR BKN006
     FM241000 04011KT 2SM -RA BR OVC006
     FM242000 26020G32KT 3SM -RA BR OVC008
     FM250100 26015G25KT 2SM -RASN OVC010
     FM250300 26014G24KT 1 1/2SM -SN BR OVC010=

USA.gov is the U.S. government's official web portal to all federal, state and local government web resources and services.